Time;durP1;ratioP1;P1;durP2;ratioP2;P2;SDS_P1;SDS_P2;PMS_P1;PMS_P2;Temp;Humidity;BMP_temperature;BMP_pressure;BME280_temperature;BME280_humidity;BME280_pressure;Samples;Min_cycle;Max_cycle;Signal;HPM_P1;HPM_P2
2023/06/10 00:00:44;;;;;;;5.18;4.68;;;21.80;72.60;;;;;;5039261;28;20193;-72
2023/06/10 00:03:10;;;;;;;5.53;4.78;;;21.70;72.70;;;;;;5044831;28;20184;-70
2023/06/10 00:05:41;;;;;;;5.10;4.60;;;21.70;73.10;;;;;;5033979;28;20173;-67
2023/06/10 00:08:07;;;;;;;5.45;4.88;;;21.70;73.60;;;;;;5055267;28;20165;-68
2023/06/10 00:10:36;;;;;;;5.82;4.97;;;21.60;73.60;;;;;;5051535;28;20189;-67
2023/06/10 00:13:04;;;;;;;5.30;4.80;;;21.60;74.00;;;;;;5036720;28;20204;-67
2023/06/10 00:15:32;;;;;;;5.15;4.65;;;21.60;75.20;;;;;;5053495;28;20207;-69
2023/06/10 00:18:01;;;;;;;5.15;4.57;;;21.60;75.00;;;;;;5051213;28;20232;-71
2023/06/10 00:20:26;;;;;;;5.25;4.75;;;21.60;75.00;;;;;;5041010;28;20188;-72
2023/06/10 00:22:52;;;;;;;5.03;4.45;;;21.60;75.80;;;;;;5030862;28;20180;-71
2023/06/10 00:25:18;;;;;;;4.97;4.43;;;21.50;76.00;;;;;;5037413;28;20267;-71
2023/06/10 00:27:44;;;;;;;5.40;4.90;;;21.50;75.40;;;;;;5037652;28;20178;-72
2023/06/10 00:30:13;;;;;;;5.38;4.88;;;21.50;75.70;;;;;;5054896;28;20205;-72
2023/06/10 00:32:38;;;;;;;5.00;4.50;;;21.50;76.10;;;;;;5049846;28;20166;-72
2023/06/10 00:35:10;;;;;;;5.50;4.57;;;21.50;76.20;;;;;;5053104;28;20177;-72
2023/06/10 00:37:36;;;;;;;4.63;4.22;;;21.50;77.00;;;;;;5037572;28;20197;-70
2023/06/10 00:40:02;;;;;;;6.70;4.47;;;21.50;76.70;;;;;;5031646;28;20182;-70
2023/06/10 00:42:28;;;;;;;4.53;4.07;;;21.50;77.00;;;;;;5037287;28;20169;-72
2023/06/10 00:44:57;;;;;;;5.15;4.65;;;21.50;77.00;;;;;;5054517;28;20204;-73
2023/06/10 00:47:22;;;;;;;4.88;4.38;;;21.50;77.20;;;;;;5040811;28;20279;-73
2023/06/10 00:49:53;;;;;;;5.97;4.18;;;21.50;77.30;;;;;;5030776;28;20221;-71
2023/06/10 00:52:25;;;;;;;4.82;4.43;;;21.50;77.90;;;;;;5054515;28;20174;-72
2023/06/10 00:54:51;;;;;;;5.47;4.70;;;21.50;78.40;;;;;;5037095;28;20262;-73
2023/06/10 00:57:16;;;;;;;5.00;4.50;;;21.50;77.90;;;;;;5036877;28;20345;-72
2023/06/10 00:59:48;;;;;;;5.18;4.63;;;21.50;78.50;;;;;;5036850;28;20431;-72
2023/06/10 01:02:13;;;;;;;4.97;4.30;;;21.60;79.40;;;;;;5037890;28;20166;-71
2023/06/10 01:04:42;;;;;;;5.47;4.65;;;21.50;78.50;;;;;;5034269;28;20255;-72
2023/06/10 01:07:30;;;;;;;5.00;4.50;;;21.50;79.00;;;;;;5053185;28;20262;-72
2023/06/10 01:10:17;;;;;;;5.53;4.47;;;21.50;80.20;;;;;;5037047;28;20173;-72
2023/06/10 01:12:50;;;;;;;5.13;4.00;;;21.60;80.50;;;;;;5037151;28;20479;-73
2023/06/10 01:15:17;;;;;;;6.05;4.50;;;21.50;80.00;;;;;;5028151;28;20212;-73
2023/06/10 01:18:08;;;;;;;4.80;4.30;;;21.50;79.40;;;;;;5033423;28;20213;-73
2023/06/10 01:20:43;;;;;;;4.82;4.20;;;21.60;81.00;;;;;;5051477;28;20220;-70
2023/06/10 01:23:10;;;;;;;4.30;3.90;;;21.60;80.20;;;;;;5044674;28;20176;-72
2023/06/10 01:26:04;;;;;;;4.47;4.07;;;21.60;80.10;;;;;;5054389;28;20180;-72
2023/06/10 01:28:35;;;;;;;4.70;4.30;;;21.60;82.00;;;;;;5037102;28;20193;-73
2023/06/10 01:31:15;;;;;;;4.18;3.72;;;21.60;80.30;;;;;;5054106;28;20177;-72
2023/06/10 01:33:47;;;;;;;4.47;4.03;;;21.60;81.30;;;;;;5037750;28;20169;-72
2023/06/10 01:36:16;;;;;;;5.38;4.25;;;21.60;81.60;;;;;;5037278;28;20203;-73
2023/06/10 01:38:47;;;;;;;4.68;4.18;;;21.60;81.10;;;;;;5053711;28;20204;-68
2023/06/10 01:41:15;;;;;;;4.40;4.00;;;21.60;81.80;;;;;;5024865;28;20193;-70
2023/06/10 01:43:45;;;;;;;4.97;4.40;;;21.60;81.20;;;;;;5037673;28;20279;-70
2023/06/10 01:46:19;;;;;;;5.18;4.25;;;21.60;81.10;;;;;;5037170;28;20204;-71
2023/06/10 01:48:47;;;;;;;4.72;4.32;;;21.60;81.00;;;;;;5041591;28;20208;-69
2023/06/10 01:51:13;;;;;;;4.97;4.50;;;21.50;81.40;;;;;;5053404;28;20196;-71
2023/06/10 01:53:43;;;;;;;4.30;3.90;;;21.50;81.20;;;;;;5037705;28;20207;-73
2023/06/10 01:56:09;;;;;;;5.00;4.50;;;21.50;81.80;;;;;;5024328;28;20197;-73
2023/06/10 01:58:35;;;;;;;5.20;4.70;;;21.40;82.20;;;;;;5037615;28;20212;-72
2023/06/10 02:01:07;;;;;;;4.65;4.15;;;21.40;81.90;;;;;;5037574;28;20244;-73
2023/06/10 02:03:32;;;;;;;4.38;3.97;;;21.40;82.00;;;;;;5036812;28;20201;-73
2023/06/10 02:06:00;;;;;;;4.68;4.28;;;21.30;82.00;;;;;;5037355;28;20207;-73
2023/06/10 02:08:27;;;;;;;5.35;4.78;;;21.30;82.20;;;;;;5054020;28;20184;-73
2023/06/10 02:10:53;;;;;;;4.90;4.40;;;21.20;82.70;;;;;;5053935;28;20197;-73
2023/06/10 02:13:18;;;;;;;5.35;4.78;;;21.20;82.30;;;;;;5054570;28;20234;-72
2023/06/10 02:15:44;;;;;;;5.50;5.00;;;21.10;82.40;;;;;;5046957;28;20567;-72
2023/06/10 02:18:11;;;;;;;5.30;4.80;;;21.00;82.40;;;;;;5067081;28;20201;-70
2023/06/10 02:20:38;;;;;;;5.10;4.60;;;21.00;83.30;;;;;;5041854;28;20197;-70
2023/06/10 02:23:03;;;;;;;5.25;4.75;;;20.90;82.70;;;;;;5029994;28;20177;-73
2023/06/10 02:25:29;;;;;;;5.13;4.63;;;20.80;82.80;;;;;;5046592;28;20197;-71
2023/06/10 02:27:57;;;;;;;6.43;4.45;;;20.80;83.10;;;;;;5039659;28;20392;-73
2023/06/10 02:30:25;;;;;;;5.38;4.88;;;20.70;83.20;;;;;;5037863;28;20244;-73
2023/06/10 02:32:53;;;;;;;5.38;4.88;;;20.70;83.50;;;;;;5048060;28;20170;-73
2023/06/10 02:35:18;;;;;;;5.00;4.47;;;20.60;83.70;;;;;;5021196;28;20273;-69
2023/06/10 02:37:46;;;;;;;5.55;4.70;;;20.50;83.90;;;;;;5021186;28;20213;-70
2023/06/10 02:40:14;;;;;;;5.25;4.75;;;20.50;84.20;;;;;;5038234;28;20185;-73
2023/06/10 02:42:42;;;;;;;5.47;4.97;;;20.50;84.50;;;;;;5053722;28;20260;-73
2023/06/10 02:45:08;;;;;;;5.97;4.47;;;20.40;84.70;;;;;;5053828;28;20193;-74
2023/06/10 02:47:36;;;;;;;6.13;4.80;;;20.40;85.20;;;;;;5054091;28;20184;-73
2023/06/10 02:50:04;;;;;;;5.45;4.68;;;20.30;85.40;;;;;;5056168;28;20205;-72
2023/06/10 02:52:31;;;;;;;5.10;4.63;;;20.30;85.70;;;;;;5056913;28;20173;-70
2023/06/10 02:54:56;;;;;;;5.53;4.30;;;20.30;86.10;;;;;;5035498;28;20186;-70
2023/06/10 02:57:22;;;;;;;5.70;4.80;;;20.20;86.40;;;;;;5056164;28;20217;-74
2023/06/10 02:59:53;;;;;;;5.10;4.63;;;20.20;86.60;;;;;;5057194;28;20181;-72
2023/06/10 03:02:19;;;;;;;4.95;4.47;;;20.20;87.10;;;;;;5056981;28;20201;-73
2023/06/10 03:04:45;;;;;;;5.28;4.78;;;20.10;87.30;;;;;;5070618;28;20212;-73
2023/06/10 03:07:13;;;;;;;5.57;5.07;;;20.10;87.60;;;;;;5056691;28;20174;-73
2023/06/10 03:09:41;;;;;;;5.97;5.13;;;20.00;88.60;;;;;;5056613;28;20200;-71
2023/06/10 03:12:07;;;;;;;5.82;5.22;;;20.00;88.60;;;;;;5040149;28;20188;-70
2023/06/10 03:14:35;;;;;;;5.93;5.30;;;19.90;88.90;;;;;;5056639;28;20182;-73
2023/06/10 03:17:01;;;;;;;5.90;5.30;;;19.90;89.60;;;;;;5040291;28;20177;-70
2023/06/10 03:19:29;;;;;;;5.88;5.18;;;19.80;89.60;;;;;;5040083;28;20239;-73
2023/06/10 03:22:06;;;;;;;5.95;5.35;;;19.80;90.00;;;;;;5056480;28;20278;-71
2023/06/10 03:24:32;;;;;;;5.60;4.97;;;19.70;90.50;;;;;;5036436;28;20220;-73
2023/06/10 03:26:58;;;;;;;5.47;4.97;;;19.60;90.30;;;;;;5048536;28;20239;-69
2023/06/10 03:29:23;;;;;;;5.38;4.88;;;19.60;90.50;;;;;;5056706;28;20173;-74
2023/06/10 03:31:51;;;;;;;5.28;4.78;;;19.50;90.70;;;;;;5056472;28;20180;-70
2023/06/10 03:34:17;;;;;;;6.10;5.32;;;19.50;90.90;;;;;;5052917;28;20209;-73
2023/06/10 03:36:42;;;;;;;5.63;5.05;;;19.50;91.10;;;;;;5056411;28;20192;-73
2023/06/10 03:39:09;;;;;;;5.85;5.25;;;19.50;91.30;;;;;;5050592;28;20192;-73
2023/06/10 03:41:35;;;;;;;5.63;5.13;;;19.50;91.30;;;;;;5055590;28;20198;-69
2023/06/10 03:44:03;;;;;;;5.70;5.00;;;19.50;91.60;;;;;;5056378;28;20265;-74
2023/06/10 03:46:31;;;;;;;6.07;5.20;;;19.50;91.60;;;;;;5039750;28;20311;-71
2023/06/10 03:49:00;;;;;;;5.93;5.32;;;19.40;91.70;;;;;;5039193;28;20259;-73
2023/06/10 03:51:26;;;;;;;5.38;4.88;;;19.40;91.80;;;;;;5039451;28;20173;-71
2023/06/10 03:53:56;;;;;;;5.82;4.78;;;19.40;92.00;;;;;;5039271;28;20185;-70
2023/06/10 03:56:25;;;;;;;6.68;5.03;;;19.40;92.40;;;;;;5038809;28;20189;-73
2023/06/10 03:58:53;;;;;;;4.65;4.25;;;19.40;92.60;;;;;;5055559;28;20243;-71
2023/06/10 04:01:21;;;;;;;6.03;4.88;;;19.40;92.50;;;;;;5038744;28;20201;-73
2023/06/10 04:03:48;;;;;;;5.32;4.78;;;19.40;92.70;;;;;;5055789;28;20189;-73
2023/06/10 04:06:17;;;;;;;5.43;4.93;;;19.40;93.00;;;;;;5055990;28;20180;-73
2023/06/10 04:08:42;;;;;;;5.47;4.97;;;19.40;93.40;;;;;;5056092;28;20226;-74
2023/06/10 04:11:08;;;;;;;5.13;4.60;;;19.40;93.30;;;;;;5048923;28;20170;-73
2023/06/10 04:13:37;;;;;;;5.70;4.40;;;19.30;93.50;;;;;;5054943;28;20203;-71
2023/06/10 04:16:03;;;;;;;5.40;4.90;;;19.40;93.70;;;;;;5039065;28;20267;-72
2023/06/10 04:18:28;;;;;;;6.47;4.72;;;19.40;93.90;;;;;;5055696;28;20215;-73
2023/06/10 04:20:57;;;;;;;5.97;4.93;;;19.40;94.10;;;;;;5055517;28;20204;-72
2023/06/10 04:23:22;;;;;;;5.47;4.97;;;19.40;94.20;;;;;;5039013;28;20306;-73
2023/06/10 04:25:50;;;;;;;5.75;4.90;;;19.40;94.30;;;;;;5038823;28;20268;-73
2023/06/10 04:28:18;;;;;;;6.72;4.95;;;19.40;94.40;;;;;;5038486;28;20234;-73
2023/06/10 04:30:46;;;;;;;8.15;4.72;;;19.40;94.50;;;;;;5038043;28;20227;-73
2023/06/10 04:33:14;;;;;;;5.43;4.93;;;19.50;95.00;;;;;;5034903;28;20213;-73
2023/06/10 04:35:40;;;;;;;5.93;5.35;;;19.50;95.10;;;;;;5048811;28;20181;-71
2023/06/10 04:38:10;;;;;;;5.25;4.75;;;19.50;95.00;;;;;;5027390;28;20177;-73
2023/06/10 04:40:38;;;;;;;5.40;4.90;;;19.50;95.20;;;;;;5035341;28;20198;-72
2023/06/10 04:43:06;;;;;;;6.38;5.10;;;19.60;95.40;;;;;;5055196;28;20260;-70
2023/06/10 04:45:39;;;;;;;7.00;5.15;;;19.60;95.50;;;;;;5054299;28;20239;-73
2023/06/10 04:48:07;;;;;;;5.30;4.80;;;19.60;95.90;;;;;;5038133;28;20176;-73
2023/06/10 04:50:33;;;;;;;5.45;4.95;;;19.70;95.80;;;;;;5037870;28;20256;-73
2023/06/10 04:52:59;;;;;;;6.38;5.10;;;19.70;95.80;;;;;;5034227;28;20236;-70
2023/06/10 04:55:25;;;;;;;5.22;4.72;;;19.70;95.90;;;;;;5045747;28;20189;-72
2023/06/10 04:57:51;;;;;;;18.50;14.73;;;19.80;96.00;;;;;;5053996;28;20184;-73
2023/06/10 05:00:20;;;;;;;14.68;11.75;;;19.80;96.20;;;;;;5038100;28;20181;-73
2023/06/10 05:02:49;;;;;;;12.65;11.35;;;19.90;96.50;;;;;;5056591;28;20181;-72
2023/06/10 05:05:20;;;;;;;9.23;8.32;;;20.00;96.60;;;;;;5053079;28;20209;-71
2023/06/10 05:07:48;;;;;;;7.88;7.07;;;20.00;96.90;;;;;;5032427;28;20259;-74
2023/06/10 05:10:18;;;;;;;7.43;6.40;;;20.00;97.00;;;;;;5037161;28;20188;-72
2023/06/10 05:12:49;;;;;;;6.28;5.68;;;20.10;97.30;;;;;;5038932;28;20201;-73
2023/06/10 05:15:23;;;;;;;7.70;5.88;;;20.20;97.40;;;;;;5037925;28;20177;-72
2023/06/10 05:17:48;;;;;;;11.30;7.22;;;20.20;97.40;;;;;;5027358;28;20197;-73
2023/06/10 05:20:16;;;;;;;6.80;6.15;;;20.20;97.40;;;;;;5036241;28;20172;-72
2023/06/10 05:22:44;;;;;;;6.43;5.47;;;20.30;97.90;;;;;;5021541;28;20178;-72
2023/06/10 05:25:10;;;;;;;5.65;5.15;;;20.30;98.00;;;;;;5025835;28;20217;-70
2023/06/10 05:27:39;;;;;;;6.13;5.60;;;20.40;98.20;;;;;;5046403;28;20174;-70
2023/06/10 05:30:07;;;;;;;6.13;5.53;;;20.50;98.00;;;;;;5053013;28;20184;-73
2023/06/10 05:32:35;;;;;;;6.07;5.47;;;20.60;98.10;;;;;;5054390;28;20169;-73
2023/06/10 05:35:04;;;;;;;5.65;5.03;;;20.60;98.20;;;;;;5034888;28;20263;-72
2023/06/10 05:37:34;;;;;;;5.93;5.32;;;20.70;98.30;;;;;;5037351;28;20308;-73
2023/06/10 05:40:04;;;;;;;7.22;6.05;;;20.80;98.80;;;;;;5037486;28;20169;-73
2023/06/10 05:42:34;;;;;;;6.28;5.68;;;20.90;99.00;;;;;;5037480;28;20177;-77
2023/06/10 05:45:00;;;;;;;6.10;5.50;;;20.90;99.10;;;;;;5037413;28;20213;-72
2023/06/10 05:47:27;;;;;;;6.80;5.90;;;21.00;99.00;;;;;;5027176;28;20205;-75
2023/06/10 05:49:55;;;;;;;5.85;5.25;;;21.10;99.10;;;;;;5047513;28;20228;-76
2023/06/10 05:52:23;;;;;;;5.65;4.97;;;21.10;99.20;;;;;;5054309;28;20261;-76
2023/06/10 05:54:54;;;;;;;6.55;5.95;;;21.20;99.30;;;;;;5033981;28;20363;-73
2023/06/10 05:57:22;;;;;;;5.82;5.22;;;21.30;99.40;;;;;;5052678;28;20208;-76
2023/06/10 05:59:48;;;;;;;6.13;5.53;;;21.40;99.30;;;;;;5017929;28;20522;-70
2023/06/10 06:02:13;;;;;;;10.27;9.15;;;21.40;99.30;;;;;;5017889;28;20288;-71
2023/06/10 06:04:43;;;;;;;14.82;13.25;;;21.50;99.30;;;;;;5017897;28;20224;-71
2023/06/10 06:07:09;;;;;;;10.13;8.43;;;21.60;99.50;;;;;;5036610;28;20177;-70
2023/06/10 06:09:37;;;;;;;7.97;7.03;;;21.60;99.40;;;;;;5053449;28;20219;-72
2023/06/10 06:12:09;;;;;;;6.45;5.85;;;21.70;99.40;;;;;;5053655;28;20181;-71
2023/06/10 06:14:39;;;;;;;5.65;5.05;;;21.80;99.50;;;;;;5053318;28;20220;-71
2023/06/10 06:17:05;;;;;;;5.63;4.95;;;21.80;99.30;;;;;;5053700;28;20234;-72
2023/06/10 06:19:31;;;;;;;5.20;4.65;;;21.90;99.20;;;;;;5036771;28;20215;-72
2023/06/10 06:21:56;;;;;;;7.25;4.60;;;21.90;99.10;;;;;;5037014;28;20157;-70
2023/06/10 06:24:24;;;;;;;5.28;4.78;;;22.00;99.20;;;;;;5039874;28;20197;-72
2023/06/10 06:26:49;;;;;;;4.82;4.40;;;22.10;99.20;;;;;;5040611;28;20180;-72
2023/06/10 06:29:15;;;;;;;5.20;4.70;;;22.10;99.10;;;;;;5040568;28;20177;-72
2023/06/10 06:31:43;;;;;;;4.93;4.43;;;22.20;99.10;;;;;;5056889;28;20193;-71
2023/06/10 06:34:11;;;;;;;5.35;4.28;;;22.30;99.10;;;;;;5034962;28;20174;-68
2023/06/10 06:36:36;;;;;;;4.65;4.10;;;22.40;99.10;;;;;;5040004;28;20197;-72
2023/06/10 06:39:02;;;;;;;6.70;5.97;;;22.50;98.80;;;;;;5036547;28;20254;-69
2023/06/10 06:41:28;;;;;;;5.20;4.70;;;22.50;98.50;;;;;;5057457;28;20187;-70
2023/06/10 06:43:54;;;;;;;4.53;4.13;;;22.60;98.30;;;;;;5057475;28;20309;-71
2023/06/10 06:46:21;;;;;;;4.45;4.05;;;22.60;98.20;;;;;;5037485;28;20208;-71
2023/06/10 06:48:46;;;;;;;4.38;3.97;;;22.70;98.10;;;;;;5044978;28;20202;-71
2023/06/10 06:51:12;;;;;;;4.18;3.78;;;22.80;97.80;;;;;;5045081;28;20165;-71
2023/06/10 06:53:44;;;;;;;4.03;3.63;;;22.80;97.50;;;;;;5056053;28;20181;-70
2023/06/10 06:56:12;;;;;;;4.70;3.97;;;22.90;97.30;;;;;;5057130;28;20235;-72
2023/06/10 06:58:38;;;;;;;4.35;3.55;;;23.00;97.20;;;;;;5056992;28;20203;-70
2023/06/10 07:01:06;;;;;;;4.68;3.72;;;23.00;97.00;;;;;;5040417;28;20272;-67
2023/06/10 07:03:36;;;;;;;4.15;3.60;;;23.10;97.00;;;;;;5040502;28;20269;-71
2023/06/10 07:06:04;;;;;;;5.05;3.85;;;23.10;96.50;;;;;;5040336;28;20165;-70
2023/06/10 07:08:30;;;;;;;6.03;5.30;;;23.20;96.60;;;;;;5040481;28;20197;-71
2023/06/10 07:10:56;;;;;;;6.00;5.32;;;23.30;96.70;;;;;;5040887;28;20340;-70
2023/06/10 07:13:23;;;;;;;6.05;4.90;;;23.40;96.50;;;;;;5040473;28;20169;-71
2023/06/10 07:15:54;;;;;;;4.82;4.10;;;23.40;96.40;;;;;;5039953;28;20228;-71
2023/06/10 07:18:22;;;;;;;4.60;4.07;;;23.50;96.30;;;;;;5047754;28;20185;-66
2023/06/10 07:20:52;;;;;;;4.57;3.97;;;23.60;96.30;;;;;;5056978;28;20260;-68
2023/06/10 07:23:17;;;;;;;4.72;3.95;;;23.70;95.80;;;;;;5020027;28;20264;-70
2023/06/10 07:25:43;;;;;;;3.97;3.67;;;23.70;95.80;;;;;;5027577;28;20270;-70
2023/06/10 07:28:09;;;;;;;5.05;4.00;;;23.80;95.90;;;;;;5033402;28;20344;-71
2023/06/10 07:30:37;;;;;;;3.97;3.35;;;23.90;95.50;;;;;;5055932;28;20223;-70
2023/06/10 07:33:03;;;;;;;3.80;3.33;;;23.90;95.30;;;;;;5056191;28;20220;-71
2023/06/10 07:35:28;;;;;;;6.00;3.50;;;24.00;95.40;;;;;;5056148;28;20185;-69
2023/06/10 07:37:54;;;;;;;4.93;3.63;;;24.10;95.40;;;;;;5055735;28;20228;-70
2023/06/10 07:40:22;;;;;;;6.53;4.28;;;24.10;95.20;;;;;;5039179;28;20204;-66
2023/06/10 07:42:49;;;;;;;4.40;3.50;;;24.20;94.80;;;;;;5055242;28;20201;-64
2023/06/10 07:45:17;;;;;;;4.38;3.97;;;24.30;94.70;;;;;;5055499;28;20217;-70
2023/06/10 07:47:43;;;;;;;4.25;3.85;;;24.30;94.70;;;;;;5055725;28;20169;-69
2023/06/10 07:50:16;;;;;;;4.40;3.72;;;24.40;94.60;;;;;;5057697;28;20200;-68
2023/06/10 07:52:44;;;;;;;10.05;3.63;;;24.40;94.10;;;;;;5060952;28;20256;-69
2023/06/10 07:55:10;;;;;;;8.93;3.88;;;24.50;94.50;;;;;;5058592;28;20200;-67
2023/06/10 07:57:38;;;;;;;4.70;3.80;;;24.60;94.20;;;;;;5039614;28;20169;-68
2023/06/10 08:00:05;;;;;;;4.22;3.53;;;24.60;94.20;;;;;;5039384;28;20188;-70
2023/06/10 08:02:31;;;;;;;3.65;3.35;;;24.70;94.20;;;;;;5035238;28;20174;-71
2023/06/10 08:04:57;;;;;;;3.85;3.45;;;24.80;94.30;;;;;;5035775;28;20258;-70
2023/06/10 08:07:22;;;;;;;3.53;3.20;;;24.90;94.20;;;;;;5042707;28;20204;-70
2023/06/10 08:09:55;;;;;;;4.10;3.70;;;24.90;94.00;;;;;;5066519;28;20173;-71
2023/06/10 08:12:25;;;;;;;3.92;3.63;;;25.00;93.90;;;;;;5055548;28;20200;-70
2023/06/10 08:14:51;;;;;;;5.68;3.65;;;25.00;93.70;;;;;;5047726;28;20219;-71
2023/06/10 08:17:19;;;;;;;4.28;3.88;;;25.10;93.80;;;;;;5052169;28;20189;-70
2023/06/10 08:19:45;;;;;;;4.00;3.60;;;25.20;93.70;;;;;;5044973;28;20197;-71
2023/06/10 08:22:10;;;;;;;4.03;3.63;;;25.20;93.80;;;;;;5038387;28;20177;-69
2023/06/10 08:24:39;;;;;;;4.15;3.75;;;25.30;93.70;;;;;;5055658;28;20212;-69
2023/06/10 08:27:05;;;;;;;5.03;3.90;;;25.40;93.40;;;;;;5055266;28;20180;-69
2023/06/10 08:29:34;;;;;;;4.38;3.97;;;25.50;93.10;;;;;;5038933;28;20177;-68
2023/06/10 08:32:00;;;;;;;6.72;3.47;;;25.50;93.00;;;;;;5037831;28;20177;-70
2023/06/10 08:34:28;;;;;;;5.03;4.18;;;25.60;92.90;;;;;;5030652;28;20174;-69
2023/06/10 08:36:56;;;;;;;4.50;3.88;;;25.60;92.80;;;;;;5022015;28;20276;-70
2023/06/10 08:39:22;;;;;;;4.35;3.95;;;25.70;92.80;;;;;;5032320;28;20177;-71
2023/06/10 08:42:17;;;;;;;4.25;3.85;;;25.80;92.60;;;;;;5037286;28;20178;-70
2023/06/10 08:44:49;;;;;;;4.60;3.85;;;25.80;92.10;;;;;;5035974;28;20197;-70
2023/06/10 08:47:16;;;;;;;4.50;3.80;;;25.90;92.50;;;;;;5054305;28;20169;-70
2023/06/10 08:49:50;;;;;;;4.07;3.72;;;26.00;92.40;;;;;;5034828;28;20181;-71
2023/06/10 08:52:20;;;;;;;4.00;3.63;;;26.10;92.10;;;;;;5036292;28;20170;-70
2023/06/10 08:55:09;;;;;;;7.88;4.45;;;26.20;92.20;;;;;;5054166;28;20196;-68
2023/06/10 08:57:36;;;;;;;6.55;3.80;;;26.20;91.30;;;;;;5037853;28;20197;-71
2023/06/10 09:00:02;;;;;;;4.95;4.45;;;26.30;91.90;;;;;;5048910;28;20200;-70
2023/06/10 09:02:35;;;;;;;4.22;3.83;;;26.40;91.80;;;;;;5049332;28;20169;-70
2023/06/10 09:05:03;;;;;;;4.30;3.90;;;26.50;91.50;;;;;;5036716;28;20516;-71
2023/06/10 09:07:35;;;;;;;5.57;3.92;;;26.50;91.80;;;;;;5037886;28;20177;-71
2023/06/10 09:10:06;;;;;;;4.93;4.03;;;26.60;91.50;;;;;;5037616;28;20177;-70
2023/06/10 09:12:34;;;;;;;4.45;4.05;;;26.70;91.50;;;;;;5051359;28;20258;-70
2023/06/10 09:15:01;;;;;;;4.90;4.38;;;26.80;91.40;;;;;;5037158;28;20169;-71
2023/06/10 09:17:27;;;;;;;4.50;4.10;;;26.80;91.30;;;;;;5037431;28;20284;-71
2023/06/10 09:19:55;;;;;;;7.15;4.30;;;26.90;91.30;;;;;;5032199;28;20177;-71
2023/06/10 09:22:26;;;;;;;5.10;4.60;;;27.00;91.30;;;;;;5037829;28;20177;-71
2023/06/10 09:25:03;;;;;;;5.25;4.20;;;27.10;91.20;;;;;;5037444;28;20220;-71
2023/06/10 09:27:31;;;;;;;4.43;4.03;;;27.20;91.00;;;;;;5047804;28;20200;-71
2023/06/10 09:29:58;;;;;;;5.03;4.28;;;27.30;90.80;;;;;;5057318;28;20184;-71
2023/06/10 09:32:24;;;;;;;5.20;3.92;;;27.40;90.90;;;;;;5042862;28;20200;-70
2023/06/10 09:34:50;;;;;;;4.68;4.20;;;27.40;90.70;;;;;;5050897;28;20231;-72
2023/06/10 09:37:29;;;;;;;5.72;4.57;;;27.50;90.60;;;;;;5019455;28;20201;-71
2023/06/10 09:40:08;;;;;;;4.25;3.85;;;27.60;90.30;;;;;;5018233;28;20166;-69
2023/06/10 09:42:38;;;;;;;4.65;3.80;;;27.70;90.30;;;;;;5054186;28;20256;-70
2023/06/10 09:45:05;;;;;;;4.60;4.20;;;27.80;90.50;;;;;;5054048;28;20200;-70
2023/06/10 09:47:30;;;;;;;4.85;4.35;;;27.90;90.40;;;;;;5037600;28;20172;-69
2023/06/10 09:49:56;;;;;;;4.40;3.80;;;28.00;90.00;;;;;;5053936;28;20192;-70
2023/06/10 09:52:26;;;;;;;4.00;3.63;;;28.10;90.00;;;;;;5042047;28;20174;-67
2023/06/10 09:54:52;;;;;;;4.72;4.05;;;28.20;89.20;;;;;;5019761;28;20208;-69
2023/06/10 09:57:21;;;;;;;4.55;3.85;;;28.20;89.50;;;;;;5037578;28;20207;-71
2023/06/10 09:59:52;;;;;;;4.75;4.32;;;28.30;88.80;;;;;;5058122;28;20494;-71
2023/06/10 10:02:22;;;;;;;5.00;4.05;;;28.40;89.00;;;;;;5057941;28;20476;-71
2023/06/10 10:04:48;;;;;;;6.25;3.80;;;28.50;88.40;;;;;;5041525;28;20190;-70
2023/06/10 10:07:16;;;;;;;6.22;4.00;;;28.60;88.60;;;;;;5066902;28;20252;-71
2023/06/10 10:09:42;;;;;;;5.82;4.03;;;28.70;87.60;;;;;;5041597;28;20294;-70
2023/06/10 10:12:11;;;;;;;4.00;3.70;;;28.80;87.70;;;;;;5056760;28;20173;-70
2023/06/10 10:14:38;;;;;;;4.10;3.67;;;28.90;87.00;;;;;;5058118;28;20211;-74
2023/06/10 10:17:13;;;;;;;4.40;4.00;;;29.00;87.00;;;;;;5056718;28;20230;-72
2023/06/10 10:19:57;;;;;;;4.50;3.97;;;29.10;86.00;;;;;;5034621;28;20184;-72
2023/06/10 10:22:31;;;;;;;3.65;3.35;;;29.20;85.30;;;;;;5040896;28;20196;-70
2023/06/10 10:25:01;;;;;;;3.78;3.47;;;29.30;85.80;;;;;;5037809;28;20208;-71
2023/06/10 10:27:30;;;;;;;4.97;3.75;;;29.40;85.50;;;;;;5040511;28;20192;-72
2023/06/10 10:29:59;;;;;;;4.82;3.80;;;29.50;84.70;;;;;;5057419;28;20172;-70
2023/06/10 10:32:55;;;;;;;4.40;4.00;;;29.60;83.50;;;;;;5053281;28;20176;-72
2023/06/10 10:35:25;;;;;;;4.10;3.58;;;29.80;82.80;;;;;;5029312;28;20196;-70
2023/06/10 10:37:54;;;;;;;4.32;3.63;;;30.00;83.30;;;;;;5044573;28;20191;-71
2023/06/10 10:40:29;;;;;;;3.95;3.63;;;30.20;81.70;;;;;;5051337;28;20362;-71
2023/06/10 10:42:56;;;;;;;3.60;3.30;;;30.40;81.40;;;;;;5049127;28;20436;-76
2023/06/10 10:45:22;;;;;;;4.32;3.90;;;30.60;82.00;;;;;;5057548;28;20219;-71
2023/06/10 10:47:53;;;;;;;4.13;3.72;;;30.80;81.20;;;;;;5041519;28;20429;-72
2023/06/10 10:50:20;;;;;;;3.97;3.67;;;31.00;79.20;;;;;;5038508;28;20253;-73
2023/06/10 10:52:59;;;;;;;4.22;3.65;;;31.20;80.00;;;;;;5049536;28;20185;-72
2023/06/10 10:55:27;;;;;;;3.70;3.40;;;31.40;75.70;;;;;;5045211;28;20246;-74
2023/06/10 10:58:07;;;;;;;3.50;3.20;;;31.50;78.30;;;;;;5036571;28;20227;-71
2023/06/10 11:00:45;;;;;;;4.90;3.72;;;31.70;75.60;;;;;;5030307;28;20247;-73
2023/06/10 11:03:18;;;;;;;3.88;3.50;;;31.80;74.80;;;;;;5034494;28;20173;-73
2023/06/10 11:05:47;;;;;;;3.60;3.30;;;31.90;73.30;;;;;;5044497;28;20204;-74
2023/06/10 11:08:14;;;;;;;4.00;3.70;;;31.80;73.70;;;;;;5056883;28;20265;-72
2023/06/10 11:10:51;;;;;;;4.43;4.03;;;31.70;72.40;;;;;;5036913;28;20185;-71
2023/06/10 11:13:20;;;;;;;4.25;3.70;;;31.60;72.40;;;;;;5026185;28;20183;-70
2023/06/10 11:15:47;;;;;;;3.85;3.45;;;31.60;71.30;;;;;;5040422;28;20252;-71
2023/06/10 11:18:28;;;;;;;3.85;3.55;;;31.60;71.90;;;;;;5039969;28;20296;-72
2023/06/10 11:21:01;;;;;;;6.38;3.58;;;31.50;70.30;;;;;;5049774;28;20176;-71
2023/06/10 11:23:32;;;;;;;4.65;3.47;;;31.60;71.90;;;;;;5040552;28;20197;-69
2023/06/10 11:26:14;;;;;;;3.92;3.50;;;31.60;71.60;;;;;;5056504;28;20244;-72
2023/06/10 11:28:59;;;;;;;3.80;3.50;;;31.80;70.80;;;;;;5050657;28;20276;-71
2023/06/10 11:31:35;;;;;;;5.10;3.65;;;32.00;71.90;;;;;;5038431;28;20224;-71
2023/06/10 11:34:06;;;;;;;3.65;3.35;;;32.20;69.00;;;;;;5036269;28;20177;-71
2023/06/10 11:36:33;;;;;;;4.32;3.92;;;32.30;69.30;;;;;;5039283;28;20227;-70
2023/06/10 11:39:03;;;;;;;13.30;9.27;;;32.50;69.10;;;;;;5031144;28;20224;-70
2023/06/10 11:41:33;;;;;;;5.25;4.75;;;32.40;67.40;;;;;;5030781;28;20181;-70
2023/06/10 11:44:06;;;;;;;4.82;4.35;;;32.40;66.00;;;;;;5037192;28;20225;-70
2023/06/10 11:46:33;;;;;;;5.57;4.03;;;32.40;65.70;;;;;;5056287;28;20185;-67
2023/06/10 11:49:00;;;;;;;4.68;3.80;;;32.50;67.30;;;;;;5043551;28;20483;-69
2023/06/10 11:51:30;;;;;;;5.43;3.40;;;32.70;67.50;;;;;;5047724;28;20213;-70
2023/06/10 11:53:58;;;;;;;3.13;2.83;;;32.90;67.80;;;;;;5030033;28;20308;-69
2023/06/10 11:56:30;;;;;;;3.55;3.15;;;33.10;66.70;;;;;;5055868;28;20196;-70
2023/06/10 11:59:06;;;;;;;3.00;2.70;;;33.30;63.40;;;;;;5039278;28;20187;-70
2023/06/10 12:01:34;;;;;;;2.95;2.70;;;33.60;62.40;;;;;;5037979;28;20173;-71
2023/06/10 12:04:05;;;;;;;3.47;3.17;;;33.80;64.30;;;;;;5038427;28;20207;-71
2023/06/10 12:06:54;;;;;;;3.40;3.10;;;34.10;62.40;;;;;;5037496;28;20165;-71
2023/06/10 12:09:32;;;;;;;3.65;3.35;;;34.40;53.10;;;;;;5038835;28;20307;-70
2023/06/10 12:12:00;;;;;;;3.10;2.70;;;34.50;56.50;;;;;;5038688;28;20204;-67
2023/06/10 12:14:54;;;;;;;3.28;2.90;;;34.70;56.60;;;;;;5038716;28;20172;-69
2023/06/10 12:17:32;;;;;;;3.08;2.78;;;34.80;53.10;;;;;;5054985;28;20348;-69
2023/06/10 12:20:04;;;;;;;3.22;2.92;;;35.00;54.90;;;;;;5037997;28;20267;-69
2023/06/10 12:22:45;;;;;;;2.90;2.70;;;35.00;53.90;;;;;;5050030;28;20188;-70
2023/06/10 12:25:11;;;;;;;4.10;3.13;;;35.20;51.60;;;;;;5036883;28;20227;-69
2023/06/10 12:27:38;;;;;;;3.47;3.17;;;35.00;53.10;;;;;;5054939;28;20322;-69
2023/06/10 12:30:09;;;;;;;3.40;3.05;;;34.90;52.80;;;;;;5038387;28;20532;-71
2023/06/10 12:32:42;;;;;;;3.83;3.40;;;34.90;51.90;;;;;;5038401;28;20176;-70
2023/06/10 12:35:18;;;;;;;3.42;3.13;;;34.90;50.70;;;;;;5037946;28;20204;-72
2023/06/10 12:38:00;;;;;;;4.35;2.63;;;34.90;50.50;;;;;;5035179;28;20242;-68
2023/06/10 12:40:34;;;;;;;3.78;3.00;;;34.90;50.00;;;;;;5035129;28;20197;-71
2023/06/10 12:43:01;;;;;;;2.85;2.60;;;34.90;49.60;;;;;;5054311;28;20176;-70
2023/06/10 12:45:39;;;;;;;4.57;2.50;;;35.00;50.50;;;;;;5036648;28;20204;-72
2023/06/10 12:48:17;;;;;;;3.47;2.70;;;35.20;49.50;;;;;;5054419;28;20255;-69
2023/06/10 12:50:46;;;;;;;3.33;2.97;;;35.20;49.20;;;;;;5039872;28;20169;-70
2023/06/10 12:53:12;;;;;;;3.92;3.53;;;35.30;49.70;;;;;;5054306;28;20172;-69
2023/06/10 12:55:38;;;;;;;3.05;2.72;;;35.40;49.90;;;;;;5064853;28;20204;-70